sensor_id;sensor_type;location;lat;lon;timestamp;temperature;humidity
74101;DHT22;62462;52.530;21.682;2023-09-12T00:01:43;20.30;60.40
74101;DHT22;62462;52.530;21.682;2023-09-12T00:04:09;20.30;60.80
74101;DHT22;62462;52.530;21.682;2023-09-12T00:06:36;20.30;60.50
74101;DHT22;62462;52.530;21.682;2023-09-12T00:09:02;20.30;60.50
74101;DHT22;62462;52.530;21.682;2023-09-12T00:11:31;20.30;60.20
74101;DHT22;62462;52.530;21.682;2023-09-12T00:13:56;20.30;60.20
74101;DHT22;62462;52.530;21.682;2023-09-12T00:16:22;20.30;60.00
74101;DHT22;62462;52.530;21.682;2023-09-12T00:18:48;20.20;61.20
74101;DHT22;62462;52.530;21.682;2023-09-12T00:21:13;20.20;59.80
74101;DHT22;62462;52.530;21.682;2023-09-12T00:23:39;20.10;59.90
74101;DHT22;62462;52.530;21.682;2023-09-12T00:26:05;20.20;59.80
74101;DHT22;62462;52.530;21.682;2023-09-12T00:28:30;20.10;60.10
74101;DHT22;62462;52.530;21.682;2023-09-12T00:30:56;20.00;60.00
74101;DHT22;62462;52.530;21.682;2023-09-12T00:33:22;20.00;60.40
74101;DHT22;62462;52.530;21.682;2023-09-12T00:35:47;19.90;61.10
74101;DHT22;62462;52.530;21.682;2023-09-12T00:38:13;19.70;61.40
74101;DHT22;62462;52.530;21.682;2023-09-12T00:40:39;19.70;61.70
74101;DHT22;62462;52.530;21.682;2023-09-12T00:43:04;19.70;61.20
74101;DHT22;62462;52.530;21.682;2023-09-12T00:45:30;19.80;61.20
74101;DHT22;62462;52.530;21.682;2023-09-12T00:48:01;19.70;61.20
74101;DHT22;62462;52.530;21.682;2023-09-12T00:50:27;19.70;61.00
74101;DHT22;62462;52.530;21.682;2023-09-12T00:52:54;19.70;60.40
74101;DHT22;62462;52.530;21.682;2023-09-12T00:55:20;19.70;60.60
74101;DHT22;62462;52.530;21.682;2023-09-12T00:57:46;19.70;60.50
74101;DHT22;62462;52.530;21.682;2023-09-12T01:00:13;19.70;60.50
74101;DHT22;62462;52.530;21.682;2023-09-12T01:02:43;19.70;61.00
74101;DHT22;62462;52.530;21.682;2023-09-12T01:05:10;19.50;61.40
74101;DHT22;62462;52.530;21.682;2023-09-12T01:07:37;19.50;61.60
74101;DHT22;62462;52.530;21.682;2023-09-12T01:10:04;19.40;61.70
74101;DHT22;62462;52.530;21.682;2023-09-12T01:12:30;19.50;61.20
74101;DHT22;62462;52.530;21.682;2023-09-12T01:14:56;19.50;61.20
74101;DHT22;62462;52.530;21.682;2023-09-12T01:17:23;19.50;61.00
74101;DHT22;62462;52.530;21.682;2023-09-12T01:19:50;19.50;61.10
74101;DHT22;62462;52.530;21.682;2023-09-12T01:27:48;19.40;60.80
74101;DHT22;62462;52.530;21.682;2023-09-12T01:30:21;19.40;61.00
74101;DHT22;62462;52.530;21.682;2023-09-12T01:32:47;19.40;61.00
74101;DHT22;62462;52.530;21.682;2023-09-12T01:35:13;19.50;60.70
74101;DHT22;62462;52.530;21.682;2023-09-12T01:37:39;19.40;60.80
74101;DHT22;62462;52.530;21.682;2023-09-12T01:40:06;19.40;60.90
74101;DHT22;62462;52.530;21.682;2023-09-12T01:42:42;19.40;60.80
74101;DHT22;62462;52.530;21.682;2023-09-12T01:45:17;19.40;61.00
74101;DHT22;62462;52.530;21.682;2023-09-12T01:47:45;19.40;61.00
74101;DHT22;62462;52.530;21.682;2023-09-12T01:50:12;19.40;61.00
74101;DHT22;62462;52.530;21.682;2023-09-12T01:52:40;19.30;61.50
74101;DHT22;62462;52.530;21.682;2023-09-12T01:55:07;19.20;61.70
74101;DHT22;62462;52.530;21.682;2023-09-12T01:57:35;19.10;61.50
74101;DHT22;62462;52.530;21.682;2023-09-12T02:00:01;19.10;61.10
74101;DHT22;62462;52.530;21.682;2023-09-12T02:02:27;19.10;61.30
74101;DHT22;62462;52.530;21.682;2023-09-12T02:05:11;19.20;61.60
74101;DHT22;62462;52.530;21.682;2023-09-12T02:07:41;19.20;61.30
74101;DHT22;62462;52.530;21.682;2023-09-12T02:10:07;19.10;60.90
74101;DHT22;62462;52.530;21.682;2023-09-12T02:12:32;19.10;60.80
74101;DHT22;62462;52.530;21.682;2023-09-12T02:14:58;19.10;61.10
74101;DHT22;62462;52.530;21.682;2023-09-12T02:17:24;19.10;61.40
74101;DHT22;62462;52.530;21.682;2023-09-12T02:19:50;19.10;61.50
74101;DHT22;62462;52.530;21.682;2023-09-12T02:22:15;19.10;61.70
74101;DHT22;62462;52.530;21.682;2023-09-12T02:24:41;19.10;61.90
74101;DHT22;62462;52.530;21.682;2023-09-12T02:27:07;19.00;61.70
74101;DHT22;62462;52.530;21.682;2023-09-12T02:29:33;19.00;61.50
74101;DHT22;62462;52.530;21.682;2023-09-12T02:31:59;19.00;61.60
74101;DHT22;62462;52.530;21.682;2023-09-12T02:34:25;19.00;61.40
74101;DHT22;62462;52.530;21.682;2023-09-12T02:36:51;18.90;61.40
74101;DHT22;62462;52.530;21.682;2023-09-12T02:39:16;18.80;61.90
74101;DHT22;62462;52.530;21.682;2023-09-12T02:41:42;18.70;62.10
74101;DHT22;62462;52.530;21.682;2023-09-12T02:44:08;18.80;61.80
74101;DHT22;62462;52.530;21.682;2023-09-12T02:46:34;18.80;61.90
74101;DHT22;62462;52.530;21.682;2023-09-12T02:48:59;18.80;62.20
74101;DHT22;62462;52.530;21.682;2023-09-12T02:51:25;18.70;62.40
74101;DHT22;62462;52.530;21.682;2023-09-12T02:53:51;18.70;62.60
74101;DHT22;62462;52.530;21.682;2023-09-12T02:56:17;18.60;62.50
74101;DHT22;62462;52.530;21.682;2023-09-12T02:58:46;18.70;61.70
74101;DHT22;62462;52.530;21.682;2023-09-12T03:01:19;18.70;61.40
74101;DHT22;62462;52.530;21.682;2023-09-12T03:03:49;18.70;61.60
74101;DHT22;62462;52.530;21.682;2023-09-12T03:06:15;18.70;62.80
74101;DHT22;62462;52.530;21.682;2023-09-12T03:08:42;18.60;62.00
74101;DHT22;62462;52.530;21.682;2023-09-12T03:11:09;18.60;62.10
74101;DHT22;62462;52.530;21.682;2023-09-12T03:13:36;18.50;62.20
74101;DHT22;62462;52.530;21.682;2023-09-12T03:16:01;18.40;61.80
74101;DHT22;62462;52.530;21.682;2023-09-12T03:18:27;18.40;61.70
74101;DHT22;62462;52.530;21.682;2023-09-12T03:20:56;18.40;62.20
74101;DHT22;62462;52.530;21.682;2023-09-12T03:23:22;18.40;62.30
74101;DHT22;62462;52.530;21.682;2023-09-12T03:25:47;18.40;62.30
74101;DHT22;62462;52.530;21.682;2023-09-12T03:28:13;18.40;62.60
74101;DHT22;62462;52.530;21.682;2023-09-12T03:30:39;18.30;62.70
74101;DHT22;62462;52.530;21.682;2023-09-12T03:33:05;18.30;62.50
74101;DHT22;62462;52.530;21.682;2023-09-12T03:35:32;18.30;62.40
74101;DHT22;62462;52.530;21.682;2023-09-12T03:37:58;18.30;62.30
74101;DHT22;62462;52.530;21.682;2023-09-12T03:40:24;18.30;62.50
74101;DHT22;62462;52.530;21.682;2023-09-12T03:42:50;18.30;62.40
74101;DHT22;62462;52.530;21.682;2023-09-12T03:45:15;18.30;62.50
74101;DHT22;62462;52.530;21.682;2023-09-12T03:47:41;18.30;62.70
74101;DHT22;62462;52.530;21.682;2023-09-12T03:50:08;18.30;62.20
74101;DHT22;62462;52.530;21.682;2023-09-12T03:52:34;18.30;62.20
74101;DHT22;62462;52.530;21.682;2023-09-12T03:54:59;18.30;62.20
74101;DHT22;62462;52.530;21.682;2023-09-12T03:57:26;18.30;62.50
74101;DHT22;62462;52.530;21.682;2023-09-12T03:59:52;18.30;62.20
74101;DHT22;62462;52.530;21.682;2023-09-12T04:02:18;18.30;62.20
74101;DHT22;62462;52.530;21.682;2023-09-12T04:04:44;18.30;62.30
74101;DHT22;62462;52.530;21.682;2023-09-12T04:07:10;18.20;62.40
74101;DHT22;62462;52.530;21.682;2023-09-12T04:09:35;18.30;62.80
74101;DHT22;62462;52.530;21.682;2023-09-12T04:12:01;18.20;63.00
74101;DHT22;62462;52.530;21.682;2023-09-12T04:14:27;18.20;62.50
74101;DHT22;62462;52.530;21.682;2023-09-12T04:16:53;18.20;62.70
74101;DHT22;62462;52.530;21.682;2023-09-12T04:19:19;18.20;62.60
74101;DHT22;62462;52.530;21.682;2023-09-12T04:21:44;18.20;62.80
74101;DHT22;62462;52.530;21.682;2023-09-12T04:24:10;18.10;63.10
74101;DHT22;62462;52.530;21.682;2023-09-12T04:26:36;18.00;63.50
74101;DHT22;62462;52.530;21.682;2023-09-12T04:29:02;18.00;63.40
74101;DHT22;62462;52.530;21.682;2023-09-12T04:31:28;18.10;63.50
74101;DHT22;62462;52.530;21.682;2023-09-12T04:33:54;18.10;63.20
74101;DHT22;62462;52.530;21.682;2023-09-12T04:36:20;18.20;63.10
74101;DHT22;62462;52.530;21.682;2023-09-12T04:38:46;18.20;63.30
74101;DHT22;62462;52.530;21.682;2023-09-12T04:41:13;18.20;63.50
74101;DHT22;62462;52.530;21.682;2023-09-12T04:43:45;18.20;63.50
74101;DHT22;62462;52.530;21.682;2023-09-12T04:46:11;18.30;63.70
74101;DHT22;62462;52.530;21.682;2023-09-12T04:48:37;18.30;63.80
74101;DHT22;62462;52.530;21.682;2023-09-12T04:51:03;18.30;63.70
74101;DHT22;62462;52.530;21.682;2023-09-12T04:53:29;18.30;63.70
74101;DHT22;62462;52.530;21.682;2023-09-12T04:56:05;18.30;63.80
74101;DHT22;62462;52.530;21.682;2023-09-12T04:58:32;18.30;64.10
74101;DHT22;62462;52.530;21.682;2023-09-12T05:00:58;18.30;64.60
74101;DHT22;62462;52.530;21.682;2023-09-12T05:03:24;18.30;64.70
74101;DHT22;62462;52.530;21.682;2023-09-12T05:05:50;18.40;64.70
74101;DHT22;62462;52.530;21.682;2023-09-12T05:08:16;18.50;64.70
74101;DHT22;62462;52.530;21.682;2023-09-12T05:10:46;18.60;64.60
74101;DHT22;62462;52.530;21.682;2023-09-12T05:13:12;18.70;64.80
74101;DHT22;62462;52.530;21.682;2023-09-12T05:15:38;18.70;65.10
74101;DHT22;62462;52.530;21.682;2023-09-12T05:18:05;18.80;65.20
74101;DHT22;62462;52.530;21.682;2023-09-12T05:20:32;18.90;65.30
74101;DHT22;62462;52.530;21.682;2023-09-12T05:22:57;19.00;65.30
74101;DHT22;62462;52.530;21.682;2023-09-12T05:25:23;19.00;65.60
74101;DHT22;62462;52.530;21.682;2023-09-12T05:27:49;19.10;65.80
74101;DHT22;62462;52.530;21.682;2023-09-12T05:30:15;19.20;66.00
74101;DHT22;62462;52.530;21.682;2023-09-12T05:32:43;19.20;65.90
74101;DHT22;62462;52.530;21.682;2023-09-12T05:35:09;19.30;65.90
74101;DHT22;62462;52.530;21.682;2023-09-12T05:37:35;19.30;65.60
74101;DHT22;62462;52.530;21.682;2023-09-12T05:40:01;19.40;66.10
74101;DHT22;62462;52.530;21.682;2023-09-12T05:42:26;19.50;66.30
74101;DHT22;62462;52.530;21.682;2023-09-12T05:44:52;19.60;66.20
74101;DHT22;62462;52.530;21.682;2023-09-12T05:47:22;19.60;66.30
74101;DHT22;62462;52.530;21.682;2023-09-12T05:49:48;19.50;66.30
74101;DHT22;62462;52.530;21.682;2023-09-12T05:52:14;19.60;66.40
74101;DHT22;62462;52.530;21.682;2023-09-12T05:54:41;19.70;66.30
74101;DHT22;62462;52.530;21.682;2023-09-12T05:57:07;19.80;66.40
74101;DHT22;62462;52.530;21.682;2023-09-12T05:59:37;19.90;66.60
74101;DHT22;62462;52.530;21.682;2023-09-12T06:02:04;20.00;66.50
74101;DHT22;62462;52.530;21.682;2023-09-12T06:04:31;20.10;66.10
74101;DHT22;62462;52.530;21.682;2023-09-12T06:06:57;20.10;65.90
74101;DHT22;62462;52.530;21.682;2023-09-12T06:09:23;20.20;66.00
74101;DHT22;62462;52.530;21.682;2023-09-12T06:11:49;20.20;66.00
74101;DHT22;62462;52.530;21.682;2023-09-12T06:14:14;20.20;66.00
74101;DHT22;62462;52.530;21.682;2023-09-12T06:16:40;20.30;66.00
74101;DHT22;62462;52.530;21.682;2023-09-12T06:19:06;20.40;66.10
74101;DHT22;62462;52.530;21.682;2023-09-12T06:21:31;20.60;66.30
74101;DHT22;62462;52.530;21.682;2023-09-12T06:24:13;20.70;66.20
74101;DHT22;62462;52.530;21.682;2023-09-12T06:26:39;20.80;66.30
74101;DHT22;62462;52.530;21.682;2023-09-12T06:29:05;20.80;66.30
74101;DHT22;62462;52.530;21.682;2023-09-12T06:31:31;21.00;66.40
74101;DHT22;62462;52.530;21.682;2023-09-12T06:33:57;21.10;66.50
74101;DHT22;62462;52.530;21.682;2023-09-12T06:36:25;21.30;67.40
74101;DHT22;62462;52.530;21.682;2023-09-12T06:38:50;21.40;66.60
74101;DHT22;62462;52.530;21.682;2023-09-12T06:41:19;21.60;66.30
74101;DHT22;62462;52.530;21.682;2023-09-12T06:43:45;21.70;66.10
74101;DHT22;62462;52.530;21.682;2023-09-12T06:46:10;21.90;65.90
74101;DHT22;62462;52.530;21.682;2023-09-12T06:48:36;22.00;65.80
74101;DHT22;62462;52.530;21.682;2023-09-12T06:51:05;22.10;65.50
74101;DHT22;62462;52.530;21.682;2023-09-12T06:53:31;22.20;65.10
74101;DHT22;62462;52.530;21.682;2023-09-12T06:55:57;22.30;65.00
74101;DHT22;62462;52.530;21.682;2023-09-12T06:58:24;22.30;65.10
74101;DHT22;62462;52.530;21.682;2023-09-12T07:00:50;22.30;65.30
74101;DHT22;62462;52.530;21.682;2023-09-12T07:03:16;22.40;65.30
74101;DHT22;62462;52.530;21.682;2023-09-12T07:05:43;22.50;65.20
74101;DHT22;62462;52.530;21.682;2023-09-12T07:08:09;22.60;65.30
74101;DHT22;62462;52.530;21.682;2023-09-12T07:10:35;22.60;65.20
74101;DHT22;62462;52.530;21.682;2023-09-12T07:13:01;22.70;65.00
74101;DHT22;62462;52.530;21.682;2023-09-12T07:15:27;22.90;64.90
74101;DHT22;62462;52.530;21.682;2023-09-12T07:17:53;23.00;64.90
74101;DHT22;62462;52.530;21.682;2023-09-12T07:20:19;23.10;65.40
74101;DHT22;62462;52.530;21.682;2023-09-12T07:22:46;23.30;65.10
74101;DHT22;62462;52.530;21.682;2023-09-12T07:25:13;23.50;64.60
74101;DHT22;62462;52.530;21.682;2023-09-12T07:27:39;23.70;64.50
74101;DHT22;62462;52.530;21.682;2023-09-12T07:30:06;23.90;64.60
74101;DHT22;62462;52.530;21.682;2023-09-12T07:32:32;24.00;63.40
74101;DHT22;62462;52.530;21.682;2023-09-12T07:34:57;24.10;63.10
74101;DHT22;62462;52.530;21.682;2023-09-12T07:37:23;24.20;62.70
74101;DHT22;62462;52.530;21.682;2023-09-12T07:39:49;24.30;62.20
74101;DHT22;62462;52.530;21.682;2023-09-12T07:42:15;24.30;62.10
74101;DHT22;62462;52.530;21.682;2023-09-12T07:44:40;24.40;62.10
74101;DHT22;62462;52.530;21.682;2023-09-12T07:47:07;24.60;62.40
74101;DHT22;62462;52.530;21.682;2023-09-12T07:49:33;24.80;61.90
74101;DHT22;62462;52.530;21.682;2023-09-12T07:51:58;24.90;60.90
74101;DHT22;62462;52.530;21.682;2023-09-12T07:54:24;25.00;60.20
74101;DHT22;62462;52.530;21.682;2023-09-12T07:56:50;25.00;59.80
74101;DHT22;62462;52.530;21.682;2023-09-12T07:59:15;25.00;59.90
74101;DHT22;62462;52.530;21.682;2023-09-12T08:01:42;25.10;59.90
74101;DHT22;62462;52.530;21.682;2023-09-12T08:04:07;25.30;60.00
74101;DHT22;62462;52.530;21.682;2023-09-12T08:06:33;25.50;59.70
74101;DHT22;62462;52.530;21.682;2023-09-12T08:08:59;25.60;59.00
74101;DHT22;62462;52.530;21.682;2023-09-12T08:11:26;25.50;57.90
74101;DHT22;62462;52.530;21.682;2023-09-12T08:13:52;25.60;57.40
74101;DHT22;62462;52.530;21.682;2023-09-12T08:16:18;25.70;56.60
74101;DHT22;62462;52.530;21.682;2023-09-12T08:18:43;25.80;56.40
74101;DHT22;62462;52.530;21.682;2023-09-12T08:21:10;25.90;56.80
74101;DHT22;62462;52.530;21.682;2023-09-12T08:23:36;26.10;56.40
74101;DHT22;62462;52.530;21.682;2023-09-12T08:26:02;26.20;56.50
74101;DHT22;62462;52.530;21.682;2023-09-12T08:28:28;26.20;55.60
74101;DHT22;62462;52.530;21.682;2023-09-12T08:30:53;26.20;55.50
74101;DHT22;62462;52.530;21.682;2023-09-12T08:33:19;26.30;56.20
74101;DHT22;62462;52.530;21.682;2023-09-12T08:35:45;26.40;55.40
74101;DHT22;62462;52.530;21.682;2023-09-12T08:38:10;26.60;54.90
74101;DHT22;62462;52.530;21.682;2023-09-12T08:40:37;26.60;54.30
74101;DHT22;62462;52.530;21.682;2023-09-12T08:43:03;26.70;54.70
74101;DHT22;62462;52.530;21.682;2023-09-12T08:45:29;26.70;53.40
74101;DHT22;62462;52.530;21.682;2023-09-12T08:47:58;26.70;53.90
74101;DHT22;62462;52.530;21.682;2023-09-12T08:50:24;26.80;53.90
74101;DHT22;62462;52.530;21.682;2023-09-12T08:52:50;27.10;54.30
74101;DHT22;62462;52.530;21.682;2023-09-12T08:55:17;27.20;53.60
74101;DHT22;62462;52.530;21.682;2023-09-12T08:57:43;27.20;53.10
74101;DHT22;62462;52.530;21.682;2023-09-12T09:00:10;27.20;53.40
74101;DHT22;62462;52.530;21.682;2023-09-12T09:02:43;27.40;53.60
74101;DHT22;62462;52.530;21.682;2023-09-12T09:05:10;27.50;52.40
74101;DHT22;62462;52.530;21.682;2023-09-12T09:07:37;27.70;52.20
74101;DHT22;62462;52.530;21.682;2023-09-12T09:10:05;27.80;52.00
74101;DHT22;62462;52.530;21.682;2023-09-12T09:12:32;27.90;52.10
74101;DHT22;62462;52.530;21.682;2023-09-12T09:14:58;28.00;51.60
74101;DHT22;62462;52.530;21.682;2023-09-12T09:17:24;28.20;51.30
74101;DHT22;62462;52.530;21.682;2023-09-12T09:19:50;28.10;51.60
74101;DHT22;62462;52.530;21.682;2023-09-12T09:22:15;28.20;52.00
74101;DHT22;62462;52.530;21.682;2023-09-12T09:24:41;28.20;50.80
74101;DHT22;62462;52.530;21.682;2023-09-12T09:27:07;28.20;50.10
74101;DHT22;62462;52.530;21.682;2023-09-12T09:29:45;28.40;49.90
74101;DHT22;62462;52.530;21.682;2023-09-12T09:32:17;28.50;50.10
74101;DHT22;62462;52.530;21.682;2023-09-12T09:34:43;28.80;49.70
74101;DHT22;62462;52.530;21.682;2023-09-12T09:37:09;28.90;49.40
74101;DHT22;62462;52.530;21.682;2023-09-12T09:39:35;29.00;47.20
74101;DHT22;62462;52.530;21.682;2023-09-12T09:42:01;29.10;47.40
74101;DHT22;62462;52.530;21.682;2023-09-12T09:44:27;29.20;47.30
74101;DHT22;62462;52.530;21.682;2023-09-12T09:47:00;29.30;44.50
74101;DHT22;62462;52.530;21.682;2023-09-12T09:49:28;29.40;46.20
74101;DHT22;62462;52.530;21.682;2023-09-12T09:51:56;29.40;45.90
74101;DHT22;62462;52.530;21.682;2023-09-12T09:54:24;29.60;45.70
74101;DHT22;62462;52.530;21.682;2023-09-12T09:56:54;29.70;45.20
74101;DHT22;62462;52.530;21.682;2023-09-12T09:59:24;29.80;43.70
74101;DHT22;62462;52.530;21.682;2023-09-12T10:01:56;29.80;43.00
74101;DHT22;62462;52.530;21.682;2023-09-12T10:04:22;29.90;42.70
74101;DHT22;62462;52.530;21.682;2023-09-12T10:06:49;29.80;41.70
74101;DHT22;62462;52.530;21.682;2023-09-12T10:09:16;29.90;43.10
74101;DHT22;62462;52.530;21.682;2023-09-12T10:11:43;29.90;41.90
74101;DHT22;62462;52.530;21.682;2023-09-12T10:14:11;30.10;42.80
74101;DHT22;62462;52.530;21.682;2023-09-12T10:16:51;30.20;42.50
74101;DHT22;62462;52.530;21.682;2023-09-12T10:19:24;30.30;42.10
74101;DHT22;62462;52.530;21.682;2023-09-12T10:24:29;30.40;41.80
74101;DHT22;62462;52.530;21.682;2023-09-12T10:26:57;30.30;40.40
74101;DHT22;62462;52.530;21.682;2023-09-12T10:29:23;30.10;40.70
74101;DHT22;62462;52.530;21.682;2023-09-12T10:31:49;30.10;41.60
74101;DHT22;62462;52.530;21.682;2023-09-12T10:34:15;30.30;40.00
74101;DHT22;62462;52.530;21.682;2023-09-12T10:36:42;30.40;38.80
74101;DHT22;62462;52.530;21.682;2023-09-12T10:39:13;30.60;38.90
74101;DHT22;62462;52.530;21.682;2023-09-12T10:41:39;30.60;37.80
74101;DHT22;62462;52.530;21.682;2023-09-12T10:44:11;30.50;37.80
74101;DHT22;62462;52.530;21.682;2023-09-12T10:46:40;30.60;37.60
74101;DHT22;62462;52.530;21.682;2023-09-12T10:49:11;30.50;37.90
74101;DHT22;62462;52.530;21.682;2023-09-12T10:51:41;30.50;36.90
74101;DHT22;62462;52.530;21.682;2023-09-12T10:54:09;30.60;38.10
74101;DHT22;62462;52.530;21.682;2023-09-12T10:56:37;30.80;38.50
74101;DHT22;62462;52.530;21.682;2023-09-12T11:01:33;31.10;36.60
74101;DHT22;62462;52.530;21.682;2023-09-12T11:06:47;31.30;36.60
74101;DHT22;62462;52.530;21.682;2023-09-12T11:11:49;31.30;36.50
74101;DHT22;62462;52.530;21.682;2023-09-12T11:14:15;31.00;35.50
74101;DHT22;62462;52.530;21.682;2023-09-12T11:16:42;30.70;37.30
74101;DHT22;62462;52.530;21.682;2023-09-12T11:21:41;30.40;37.00
74101;DHT22;62462;52.530;21.682;2023-09-12T11:24:07;30.30;38.70
74101;DHT22;62462;52.530;21.682;2023-09-12T11:26:32;30.50;39.40
74101;DHT22;62462;52.530;21.682;2023-09-12T11:29:13;30.80;38.90
74101;DHT22;62462;52.530;21.682;2023-09-12T11:31:39;31.10;38.40
74101;DHT22;62462;52.530;21.682;2023-09-12T11:34:10;31.20;38.00
74101;DHT22;62462;52.530;21.682;2023-09-12T11:36:42;31.20;36.20
74101;DHT22;62462;52.530;21.682;2023-09-12T11:39:24;31.10;35.60
74101;DHT22;62462;52.530;21.682;2023-09-12T11:41:51;31.10;36.50
74101;DHT22;62462;52.530;21.682;2023-09-12T11:44:19;31.10;35.50
74101;DHT22;62462;52.530;21.682;2023-09-12T11:46:47;31.20;36.90
74101;DHT22;62462;52.530;21.682;2023-09-12T11:49:15;31.30;36.80
74101;DHT22;62462;52.530;21.682;2023-09-12T11:54:31;31.50;36.10
74101;DHT22;62462;52.530;21.682;2023-09-12T11:56:57;31.70;35.30
74101;DHT22;62462;52.530;21.682;2023-09-12T11:59:25;31.70;35.40
74101;DHT22;62462;52.530;21.682;2023-09-12T12:01:52;31.90;36.30
74101;DHT22;62462;52.530;21.682;2023-09-12T12:04:20;32.00;35.60
74101;DHT22;62462;52.530;21.682;2023-09-12T12:06:48;32.10;35.50
74101;DHT22;62462;52.530;21.682;2023-09-12T12:09:13;32.20;35.40
74101;DHT22;62462;52.530;21.682;2023-09-12T12:11:41;32.10;35.20
74101;DHT22;62462;52.530;21.682;2023-09-12T12:14:18;31.80;35.30
74101;DHT22;62462;52.530;21.682;2023-09-12T12:16:45;31.40;35.90
74101;DHT22;62462;52.530;21.682;2023-09-12T12:19:12;31.20;36.80
74101;DHT22;62462;52.530;21.682;2023-09-12T12:21:42;31.10;37.80
74101;DHT22;62462;52.530;21.682;2023-09-12T12:24:11;31.10;37.20
74101;DHT22;62462;52.530;21.682;2023-09-12T12:26:41;30.90;37.40
74101;DHT22;62462;52.530;21.682;2023-09-12T12:29:07;30.70;38.00
74101;DHT22;62462;52.530;21.682;2023-09-12T12:31:34;30.50;37.60
74101;DHT22;62462;52.530;21.682;2023-09-12T12:33:59;30.40;37.90
74101;DHT22;62462;52.530;21.682;2023-09-12T12:36:25;30.30;38.40
74101;DHT22;62462;52.530;21.682;2023-09-12T12:38:52;30.10;38.90
74101;DHT22;62462;52.530;21.682;2023-09-12T12:41:24;30.10;39.30
74101;DHT22;62462;52.530;21.682;2023-09-12T12:43:51;30.00;38.70
74101;DHT22;62462;52.530;21.682;2023-09-12T12:46:17;30.00;39.20
74101;DHT22;62462;52.530;21.682;2023-09-12T12:48:45;30.10;39.40
74101;DHT22;62462;52.530;21.682;2023-09-12T12:51:20;30.40;41.00
74101;DHT22;62462;52.530;21.682;2023-09-12T12:53:50;30.70;40.70
74101;DHT22;62462;52.530;21.682;2023-09-12T12:56:21;31.10;40.40
74101;DHT22;62462;52.530;21.682;2023-09-12T12:58:52;31.50;39.80
74101;DHT22;62462;52.530;21.682;2023-09-12T13:01:21;31.50;38.80
74101;DHT22;62462;52.530;21.682;2023-09-12T13:03:47;31.40;38.40
74101;DHT22;62462;52.530;21.682;2023-09-12T13:06:14;31.10;38.00
74101;DHT22;62462;52.530;21.682;2023-09-12T13:08:41;30.90;38.80
74101;DHT22;62462;52.530;21.682;2023-09-12T13:11:08;30.80;39.20
74101;DHT22;62462;52.530;21.682;2023-09-12T13:13:34;30.80;39.70
74101;DHT22;62462;52.530;21.682;2023-09-12T13:16:00;30.90;40.30
74101;DHT22;62462;52.530;21.682;2023-09-12T13:18:26;31.00;40.70
74101;DHT22;62462;52.530;21.682;2023-09-12T13:20:52;31.30;40.60
74101;DHT22;62462;52.530;21.682;2023-09-12T13:23:17;31.50;40.00
74101;DHT22;62462;52.530;21.682;2023-09-12T13:25:43;31.80;39.00
74101;DHT22;62462;52.530;21.682;2023-09-12T13:28:09;31.90;38.70
74101;DHT22;62462;52.530;21.682;2023-09-12T13:30:34;32.00;38.70
74101;DHT22;62462;52.530;21.682;2023-09-12T13:33:00;32.10;38.20
74101;DHT22;62462;52.530;21.682;2023-09-12T13:35:26;32.30;36.80
74101;DHT22;62462;52.530;21.682;2023-09-12T13:37:51;32.30;35.00
74101;DHT22;62462;52.530;21.682;2023-09-12T13:40:17;32.40;34.00
74101;DHT22;62462;52.530;21.682;2023-09-12T13:42:43;32.50;33.30
74101;DHT22;62462;52.530;21.682;2023-09-12T13:45:09;32.60;33.80
74101;DHT22;62462;52.530;21.682;2023-09-12T13:47:34;32.60;33.30
74101;DHT22;62462;52.530;21.682;2023-09-12T13:50:00;32.80;34.40
74101;DHT22;62462;52.530;21.682;2023-09-12T13:52:26;33.00;34.50
74101;DHT22;62462;52.530;21.682;2023-09-12T13:54:53;33.00;34.40
74101;DHT22;62462;52.530;21.682;2023-09-12T13:57:18;33.00;33.80
74101;DHT22;62462;52.530;21.682;2023-09-12T13:59:44;33.00;33.30
74101;DHT22;62462;52.530;21.682;2023-09-12T14:02:10;32.80;33.10
74101;DHT22;62462;52.530;21.682;2023-09-12T14:04:36;32.60;33.10
74101;DHT22;62462;52.530;21.682;2023-09-12T14:07:02;32.40;33.50
74101;DHT22;62462;52.530;21.682;2023-09-12T14:09:28;32.40;34.10
74101;DHT22;62462;52.530;21.682;2023-09-12T14:11:54;32.50;35.60
74101;DHT22;62462;52.530;21.682;2023-09-12T14:14:19;32.70;34.50
74101;DHT22;62462;52.530;21.682;2023-09-12T14:16:45;32.70;34.00
74101;DHT22;62462;52.530;21.682;2023-09-12T14:19:11;32.80;32.40
74101;DHT22;62462;52.530;21.682;2023-09-12T14:21:37;33.00;33.10
74101;DHT22;62462;52.530;21.682;2023-09-12T14:24:03;33.00;32.30
74101;DHT22;62462;52.530;21.682;2023-09-12T14:26:29;33.00;32.70
74101;DHT22;62462;52.530;21.682;2023-09-12T14:28:55;32.90;32.70
74101;DHT22;62462;52.530;21.682;2023-09-12T14:31:22;32.90;32.20
74101;DHT22;62462;52.530;21.682;2023-09-12T14:33:49;32.90;31.80
74101;DHT22;62462;52.530;21.682;2023-09-12T14:36:15;32.80;31.10
74101;DHT22;62462;52.530;21.682;2023-09-12T14:38:40;32.60;30.70
74101;DHT22;62462;52.530;21.682;2023-09-12T14:41:06;32.60;30.80
74101;DHT22;62462;52.530;21.682;2023-09-12T14:43:32;32.50;31.90
74101;DHT22;62462;52.530;21.682;2023-09-12T14:45:57;32.60;32.60
74101;DHT22;62462;52.530;21.682;2023-09-12T14:48:23;32.60;32.20
74101;DHT22;62462;52.530;21.682;2023-09-12T14:50:49;32.60;32.60
74101;DHT22;62462;52.530;21.682;2023-09-12T14:53:15;32.70;33.50
74101;DHT22;62462;52.530;21.682;2023-09-12T14:55:41;32.70;32.60
74101;DHT22;62462;52.530;21.682;2023-09-12T14:58:07;32.70;32.10
74101;DHT22;62462;52.530;21.682;2023-09-12T15:00:33;32.70;31.80
74101;DHT22;62462;52.530;21.682;2023-09-12T15:03:02;32.60;31.50
74101;DHT22;62462;52.530;21.682;2023-09-12T15:05:28;32.60;31.60
74101;DHT22;62462;52.530;21.682;2023-09-12T15:07:54;32.60;33.20
74101;DHT22;62462;52.530;21.682;2023-09-12T15:10:20;32.60;33.60
74101;DHT22;62462;52.530;21.682;2023-09-12T15:12:46;32.70;33.80
74101;DHT22;62462;52.530;21.682;2023-09-12T15:15:12;32.60;33.60
74101;DHT22;62462;52.530;21.682;2023-09-12T15:17:38;32.60;33.50
74101;DHT22;62462;52.530;21.682;2023-09-12T15:20:04;32.50;33.20
74101;DHT22;62462;52.530;21.682;2023-09-12T15:22:32;32.60;33.70
74101;DHT22;62462;52.530;21.682;2023-09-12T15:24:59;32.60;33.30
74101;DHT22;62462;52.530;21.682;2023-09-12T15:27:25;32.60;33.40
74101;DHT22;62462;52.530;21.682;2023-09-12T15:29:50;32.60;34.10
74101;DHT22;62462;52.530;21.682;2023-09-12T15:32:16;32.60;34.80
74101;DHT22;62462;52.530;21.682;2023-09-12T15:34:42;32.60;35.10